sensor_id;sensor_type;location;lat;lon;timestamp;temperature;humidity
53926;DHT22;39836;52.754;6.866;2023-05-18T00:01:48;8.00;70.00
53926;DHT22;39836;52.754;6.866;2023-05-18T00:04:18;7.90;69.90
53926;DHT22;39836;52.754;6.866;2023-05-18T00:06:49;7.90;70.00
53926;DHT22;39836;52.754;6.866;2023-05-18T00:09:24;7.90;70.00
53926;DHT22;39836;52.754;6.866;2023-05-18T00:11:54;7.80;69.90
53926;DHT22;39836;52.754;6.866;2023-05-18T00:14:20;7.80;70.00
53926;DHT22;39836;52.754;6.866;2023-05-18T00:16:46;7.70;70.30
53926;DHT22;39836;52.754;6.866;2023-05-18T00:19:12;7.60;70.20
53926;DHT22;39836;52.754;6.866;2023-05-18T00:21:42;7.60;70.10
53926;DHT22;39836;52.754;6.866;2023-05-18T00:24:08;7.60;70.20
53926;DHT22;39836;52.754;6.866;2023-05-18T00:26:42;7.50;70.20
53926;DHT22;39836;52.754;6.866;2023-05-18T00:29:08;7.50;70.40
53926;DHT22;39836;52.754;6.866;2023-05-18T00:31:34;7.50;70.40
53926;DHT22;39836;52.754;6.866;2023-05-18T00:34:11;7.40;70.40
53926;DHT22;39836;52.754;6.866;2023-05-18T00:36:38;7.30;70.60
53926;DHT22;39836;52.754;6.866;2023-05-18T00:39:05;7.30;70.60
53926;DHT22;39836;52.754;6.866;2023-05-18T00:41:31;7.30;70.90
53926;DHT22;39836;52.754;6.866;2023-05-18T00:43:57;7.30;70.90
53926;DHT22;39836;52.754;6.866;2023-05-18T00:46:25;7.20;71.00
53926;DHT22;39836;52.754;6.866;2023-05-18T00:48:51;7.20;71.00
53926;DHT22;39836;52.754;6.866;2023-05-18T00:51:18;7.00;71.10
53926;DHT22;39836;52.754;6.866;2023-05-18T00:53:45;7.00;71.30
53926;DHT22;39836;52.754;6.866;2023-05-18T00:56:11;7.00;71.40
53926;DHT22;39836;52.754;6.866;2023-05-18T00:58:38;7.00;71.80
53926;DHT22;39836;52.754;6.866;2023-05-18T01:01:05;6.90;71.60
53926;DHT22;39836;52.754;6.866;2023-05-18T01:03:35;6.90;71.50
53926;DHT22;39836;52.754;6.866;2023-05-18T01:06:05;6.70;71.60
53926;DHT22;39836;52.754;6.866;2023-05-18T01:08:31;6.70;71.50
53926;DHT22;39836;52.754;6.866;2023-05-18T01:11:13;6.60;71.50
53926;DHT22;39836;52.754;6.866;2023-05-18T01:13:49;6.60;72.20
53926;DHT22;39836;52.754;6.866;2023-05-18T01:16:34;6.50;72.10
53926;DHT22;39836;52.754;6.866;2023-05-18T01:27:44;6.40;71.90
53926;DHT22;39836;52.754;6.866;2023-05-18T01:30:14;6.40;71.90
53926;DHT22;39836;52.754;6.866;2023-05-18T01:32:41;6.40;72.00
53926;DHT22;39836;52.754;6.866;2023-05-18T01:35:07;6.30;72.00
53926;DHT22;39836;52.754;6.866;2023-05-18T01:37:33;6.30;72.10
53926;DHT22;39836;52.754;6.866;2023-05-18T01:39:59;6.20;72.10
53926;DHT22;39836;52.754;6.866;2023-05-18T01:42:27;6.20;72.20
53926;DHT22;39836;52.754;6.866;2023-05-18T01:44:59;6.20;72.30
53926;DHT22;39836;52.754;6.866;2023-05-18T01:47:29;6.10;72.40
53926;DHT22;39836;52.754;6.866;2023-05-18T01:53:04;6.10;72.60
53926;DHT22;39836;52.754;6.866;2023-05-18T01:55:32;6.00;72.70
53926;DHT22;39836;52.754;6.866;2023-05-18T01:57:59;6.00;72.70
53926;DHT22;39836;52.754;6.866;2023-05-18T02:00:26;5.90;72.80
53926;DHT22;39836;52.754;6.866;2023-05-18T02:02:52;5.80;72.90
53926;DHT22;39836;52.754;6.866;2023-05-18T02:05:18;5.80;73.00
53926;DHT22;39836;52.754;6.866;2023-05-18T02:07:43;5.70;73.00
53926;DHT22;39836;52.754;6.866;2023-05-18T02:10:12;5.70;73.10
53926;DHT22;39836;52.754;6.866;2023-05-18T02:12:37;5.60;73.10
53926;DHT22;39836;52.754;6.866;2023-05-18T02:15:04;5.60;73.20
53926;DHT22;39836;52.754;6.866;2023-05-18T02:17:34;5.60;73.20
53926;DHT22;39836;52.754;6.866;2023-05-18T02:20:04;5.60;73.20
53926;DHT22;39836;52.754;6.866;2023-05-18T02:22:35;5.60;73.30
53926;DHT22;39836;52.754;6.866;2023-05-18T02:25:04;5.60;73.50
53926;DHT22;39836;52.754;6.866;2023-05-18T02:27:31;5.50;73.40
53926;DHT22;39836;52.754;6.866;2023-05-18T02:29:57;5.50;73.20
53926;DHT22;39836;52.754;6.866;2023-05-18T02:32:23;5.50;73.30
53926;DHT22;39836;52.754;6.866;2023-05-18T02:34:52;5.50;73.30
53926;DHT22;39836;52.754;6.866;2023-05-18T02:37:18;5.50;73.40
53926;DHT22;39836;52.754;6.866;2023-05-18T02:39:43;5.30;73.30
53926;DHT22;39836;52.754;6.866;2023-05-18T02:42:09;5.40;73.40
53926;DHT22;39836;52.754;6.866;2023-05-18T02:44:35;5.40;73.50
53926;DHT22;39836;52.754;6.866;2023-05-18T02:47:01;5.40;73.60
53926;DHT22;39836;52.754;6.866;2023-05-18T02:49:27;5.30;73.70
53926;DHT22;39836;52.754;6.866;2023-05-18T02:51:52;5.20;74.20
53926;DHT22;39836;52.754;6.866;2023-05-18T02:54:18;5.10;74.40
53926;DHT22;39836;52.754;6.866;2023-05-18T02:56:44;5.00;74.50
53926;DHT22;39836;52.754;6.866;2023-05-18T02:59:09;4.90;74.90
53926;DHT22;39836;52.754;6.866;2023-05-18T03:01:35;4.90;75.20
53926;DHT22;39836;52.754;6.866;2023-05-18T03:04:02;4.80;75.10
53926;DHT22;39836;52.754;6.866;2023-05-18T03:06:27;4.80;75.30
53926;DHT22;39836;52.754;6.866;2023-05-18T03:08:55;4.90;75.00
53926;DHT22;39836;52.754;6.866;2023-05-18T03:11:22;4.90;74.80
53926;DHT22;39836;52.754;6.866;2023-05-18T03:13:48;4.90;74.60
53926;DHT22;39836;52.754;6.866;2023-05-18T03:16:14;4.90;74.30
53926;DHT22;39836;52.754;6.866;2023-05-18T03:18:40;4.90;74.20
53926;DHT22;39836;52.754;6.866;2023-05-18T03:21:06;4.90;74.20
53926;DHT22;39836;52.754;6.866;2023-05-18T03:23:33;4.90;74.10
53926;DHT22;39836;52.754;6.866;2023-05-18T03:25:59;4.90;74.10
53926;DHT22;39836;52.754;6.866;2023-05-18T03:28:27;4.90;74.10
53926;DHT22;39836;52.754;6.866;2023-05-18T03:30:53;4.90;74.20
53926;DHT22;39836;52.754;6.866;2023-05-18T03:33:19;4.90;74.30
53926;DHT22;39836;52.754;6.866;2023-05-18T03:35:44;4.80;74.20
53926;DHT22;39836;52.754;6.866;2023-05-18T03:38:10;4.80;74.20
53926;DHT22;39836;52.754;6.866;2023-05-18T03:40:36;4.90;74.20
53926;DHT22;39836;52.754;6.866;2023-05-18T03:43:02;4.90;74.30
53926;DHT22;39836;52.754;6.866;2023-05-18T03:45:27;4.90;74.30
53926;DHT22;39836;52.754;6.866;2023-05-18T03:47:53;4.90;74.40
53926;DHT22;39836;52.754;6.866;2023-05-18T03:50:19;4.80;74.40
53926;DHT22;39836;52.754;6.866;2023-05-18T03:52:45;4.80;74.50
53926;DHT22;39836;52.754;6.866;2023-05-18T03:55:11;4.80;74.50
53926;DHT22;39836;52.754;6.866;2023-05-18T03:57:37;4.80;74.50
53926;DHT22;39836;52.754;6.866;2023-05-18T04:00:04;4.80;74.50
53926;DHT22;39836;52.754;6.866;2023-05-18T04:02:34;4.80;74.50
53926;DHT22;39836;52.754;6.866;2023-05-18T04:05:00;4.90;74.60
53926;DHT22;39836;52.754;6.866;2023-05-18T04:07:26;4.90;74.50
53926;DHT22;39836;52.754;6.866;2023-05-18T04:09:54;5.00;74.60
53926;DHT22;39836;52.754;6.866;2023-05-18T04:12:20;5.00;74.60
53926;DHT22;39836;52.754;6.866;2023-05-18T04:14:45;5.10;74.60
53926;DHT22;39836;52.754;6.866;2023-05-18T04:17:18;5.20;74.60
53926;DHT22;39836;52.754;6.866;2023-05-18T04:19:47;5.20;74.60
53926;DHT22;39836;52.754;6.866;2023-05-18T04:22:14;5.20;74.50
53926;DHT22;39836;52.754;6.866;2023-05-18T04:24:41;5.30;74.70
53926;DHT22;39836;52.754;6.866;2023-05-18T04:27:07;5.30;74.90
53926;DHT22;39836;52.754;6.866;2023-05-18T04:29:34;5.40;75.00
53926;DHT22;39836;52.754;6.866;2023-05-18T04:32:05;5.40;75.00
53926;DHT22;39836;52.754;6.866;2023-05-18T04:34:32;5.40;75.00
53926;DHT22;39836;52.754;6.866;2023-05-18T04:36:59;5.40;75.00
53926;DHT22;39836;52.754;6.866;2023-05-18T04:39:27;5.50;75.30
53926;DHT22;39836;52.754;6.866;2023-05-18T04:41:53;5.50;75.50
53926;DHT22;39836;52.754;6.866;2023-05-18T04:44:32;5.50;74.90
53926;DHT22;39836;52.754;6.866;2023-05-18T04:47:01;5.60;74.80
53926;DHT22;39836;52.754;6.866;2023-05-18T04:49:28;5.60;74.70
53926;DHT22;39836;52.754;6.866;2023-05-18T04:51:56;5.60;74.70
53926;DHT22;39836;52.754;6.866;2023-05-18T04:54:27;5.70;74.60
53926;DHT22;39836;52.754;6.866;2023-05-18T04:56:56;5.70;74.60
53926;DHT22;39836;52.754;6.866;2023-05-18T04:59:22;5.80;74.70
53926;DHT22;39836;52.754;6.866;2023-05-18T05:01:54;5.80;74.80
53926;DHT22;39836;52.754;6.866;2023-05-18T05:04:20;5.80;74.80
53926;DHT22;39836;52.754;6.866;2023-05-18T05:06:46;5.80;74.70
53926;DHT22;39836;52.754;6.866;2023-05-18T05:09:12;5.90;74.60
53926;DHT22;39836;52.754;6.866;2023-05-18T05:11:40;5.90;74.70
53926;DHT22;39836;52.754;6.866;2023-05-18T05:14:06;6.00;74.70
53926;DHT22;39836;52.754;6.866;2023-05-18T05:16:32;6.00;74.90
53926;DHT22;39836;52.754;6.866;2023-05-18T05:18:58;6.10;75.00
53926;DHT22;39836;52.754;6.866;2023-05-18T05:21:24;6.10;74.90
53926;DHT22;39836;52.754;6.866;2023-05-18T05:23:50;6.20;74.90
53926;DHT22;39836;52.754;6.866;2023-05-18T05:26:17;6.30;74.90
53926;DHT22;39836;52.754;6.866;2023-05-18T05:28:43;6.40;74.70
53926;DHT22;39836;52.754;6.866;2023-05-18T05:31:09;6.40;74.60
53926;DHT22;39836;52.754;6.866;2023-05-18T05:33:34;6.60;74.90
53926;DHT22;39836;52.754;6.866;2023-05-18T05:36:00;6.60;74.70
53926;DHT22;39836;52.754;6.866;2023-05-18T05:38:26;6.70;74.80
53926;DHT22;39836;52.754;6.866;2023-05-18T05:40:51;6.70;74.70
53926;DHT22;39836;52.754;6.866;2023-05-18T05:43:17;6.80;74.70
53926;DHT22;39836;52.754;6.866;2023-05-18T05:45:43;6.90;74.90
53926;DHT22;39836;52.754;6.866;2023-05-18T05:48:09;6.90;74.90
53926;DHT22;39836;52.754;6.866;2023-05-18T05:50:35;7.00;75.00
53926;DHT22;39836;52.754;6.866;2023-05-18T05:53:01;7.00;75.00
53926;DHT22;39836;52.754;6.866;2023-05-18T05:55:26;7.10;75.00
53926;DHT22;39836;52.754;6.866;2023-05-18T05:57:52;7.20;75.00
53926;DHT22;39836;52.754;6.866;2023-05-18T06:00:18;7.30;74.90
53926;DHT22;39836;52.754;6.866;2023-05-18T06:02:44;7.40;74.80
53926;DHT22;39836;52.754;6.866;2023-05-18T06:05:10;7.60;74.80
53926;DHT22;39836;52.754;6.866;2023-05-18T06:07:36;7.70;74.80
53926;DHT22;39836;52.754;6.866;2023-05-18T06:10:01;7.80;74.70
53926;DHT22;39836;52.754;6.866;2023-05-18T06:12:27;7.90;74.60
53926;DHT22;39836;52.754;6.866;2023-05-18T06:14:54;8.10;74.60
53926;DHT22;39836;52.754;6.866;2023-05-18T06:17:26;8.20;74.30
53926;DHT22;39836;52.754;6.866;2023-05-18T06:19:53;8.30;73.70
53926;DHT22;39836;52.754;6.866;2023-05-18T06:22:19;8.40;73.60
53926;DHT22;39836;52.754;6.866;2023-05-18T06:24:46;8.50;73.40
53926;DHT22;39836;52.754;6.866;2023-05-18T06:27:11;8.50;73.00
53926;DHT22;39836;52.754;6.866;2023-05-18T06:29:37;8.60;72.80
53926;DHT22;39836;52.754;6.866;2023-05-18T06:32:03;8.60;72.70
53926;DHT22;39836;52.754;6.866;2023-05-18T06:34:29;8.70;72.70
53926;DHT22;39836;52.754;6.866;2023-05-18T06:36:54;8.80;72.60
53926;DHT22;39836;52.754;6.866;2023-05-18T06:39:20;8.80;72.40
53926;DHT22;39836;52.754;6.866;2023-05-18T06:41:49;8.80;72.30
53926;DHT22;39836;52.754;6.866;2023-05-18T06:44:16;9.00;72.20
53926;DHT22;39836;52.754;6.866;2023-05-18T06:46:42;9.00;71.80
53926;DHT22;39836;52.754;6.866;2023-05-18T06:49:07;9.00;71.80
53926;DHT22;39836;52.754;6.866;2023-05-18T06:51:33;9.10;71.90
53926;DHT22;39836;52.754;6.866;2023-05-18T06:53:59;9.20;72.00
53926;DHT22;39836;52.754;6.866;2023-05-18T06:56:25;9.30;71.80
53926;DHT22;39836;52.754;6.866;2023-05-18T06:58:50;9.30;71.30
53926;DHT22;39836;52.754;6.866;2023-05-18T07:01:16;9.40;71.20
53926;DHT22;39836;52.754;6.866;2023-05-18T07:03:42;9.40;70.60
53926;DHT22;39836;52.754;6.866;2023-05-18T07:06:08;9.40;70.70
53926;DHT22;39836;52.754;6.866;2023-05-18T07:08:34;9.50;70.70
53926;DHT22;39836;52.754;6.866;2023-05-18T07:11:02;9.40;70.50
53926;DHT22;39836;52.754;6.866;2023-05-18T07:13:28;9.50;70.60
53926;DHT22;39836;52.754;6.866;2023-05-18T07:15:53;9.50;70.50
53926;DHT22;39836;52.754;6.866;2023-05-18T07:18:19;9.50;70.50
53926;DHT22;39836;52.754;6.866;2023-05-18T07:20:45;9.50;70.30
53926;DHT22;39836;52.754;6.866;2023-05-18T07:23:11;9.60;70.30
53926;DHT22;39836;52.754;6.866;2023-05-18T07:25:37;9.60;70.20
53926;DHT22;39836;52.754;6.866;2023-05-18T07:28:03;9.70;70.30
53926;DHT22;39836;52.754;6.866;2023-05-18T07:30:29;9.80;70.30
53926;DHT22;39836;52.754;6.866;2023-05-18T07:32:54;10.00;70.40
53926;DHT22;39836;52.754;6.866;2023-05-18T07:35:21;10.00;70.10
53926;DHT22;39836;52.754;6.866;2023-05-18T07:37:48;10.10;70.20
53926;DHT22;39836;52.754;6.866;2023-05-18T07:40:14;10.10;69.90
53926;DHT22;39836;52.754;6.866;2023-05-18T07:42:42;10.30;70.00
53926;DHT22;39836;52.754;6.866;2023-05-18T07:45:08;10.40;69.80
53926;DHT22;39836;52.754;6.866;2023-05-18T07:47:34;10.50;69.70
53926;DHT22;39836;52.754;6.866;2023-05-18T07:49:59;10.50;69.80
53926;DHT22;39836;52.754;6.866;2023-05-18T07:52:25;10.60;69.90
53926;DHT22;39836;52.754;6.866;2023-05-18T07:54:53;10.80;69.80
53926;DHT22;39836;52.754;6.866;2023-05-18T07:57:19;11.00;69.60
53926;DHT22;39836;52.754;6.866;2023-05-18T07:59:45;11.10;69.30
53926;DHT22;39836;52.754;6.866;2023-05-18T08:02:11;11.20;69.50
53926;DHT22;39836;52.754;6.866;2023-05-18T08:04:37;11.20;69.40
53926;DHT22;39836;52.754;6.866;2023-05-18T08:07:03;11.20;69.30
53926;DHT22;39836;52.754;6.866;2023-05-18T08:09:29;11.30;69.30
53926;DHT22;39836;52.754;6.866;2023-05-18T08:11:56;11.40;69.20
53926;DHT22;39836;52.754;6.866;2023-05-18T08:14:22;11.40;68.90
53926;DHT22;39836;52.754;6.866;2023-05-18T08:16:48;11.40;68.70
53926;DHT22;39836;52.754;6.866;2023-05-18T08:19:14;11.30;68.80
53926;DHT22;39836;52.754;6.866;2023-05-18T08:21:39;11.40;69.00
53926;DHT22;39836;52.754;6.866;2023-05-18T08:24:06;11.50;69.10
53926;DHT22;39836;52.754;6.866;2023-05-18T08:26:38;11.50;69.00
53926;DHT22;39836;52.754;6.866;2023-05-18T08:29:04;11.60;69.10
53926;DHT22;39836;52.754;6.866;2023-05-18T08:31:38;11.60;69.20
53926;DHT22;39836;52.754;6.866;2023-05-18T08:34:06;11.60;69.00
53926;DHT22;39836;52.754;6.866;2023-05-18T08:36:36;11.70;69.10
53926;DHT22;39836;52.754;6.866;2023-05-18T08:39:02;11.60;68.90
53926;DHT22;39836;52.754;6.866;2023-05-18T08:41:32;11.70;69.10
53926;DHT22;39836;52.754;6.866;2023-05-18T10:45:01;14.90;66.50
53926;DHT22;39836;52.754;6.866;2023-05-18T10:47:28;14.90;66.60
53926;DHT22;39836;52.754;6.866;2023-05-18T10:49:57;15.00;66.60
53926;DHT22;39836;52.754;6.866;2023-05-18T10:52:24;15.00;66.60
53926;DHT22;39836;52.754;6.866;2023-05-18T10:54:57;14.80;66.40
53926;DHT22;39836;52.754;6.866;2023-05-18T10:57:26;14.90;66.50
53926;DHT22;39836;52.754;6.866;2023-05-18T10:59:54;15.00;66.20
53926;DHT22;39836;52.754;6.866;2023-05-18T11:02:19;15.10;66.70
53926;DHT22;39836;52.754;6.866;2023-05-18T11:04:46;15.10;66.20
53926;DHT22;39836;52.754;6.866;2023-05-18T11:07:12;15.10;66.10
53926;DHT22;39836;52.754;6.866;2023-05-18T11:09:42;15.20;65.90
53926;DHT22;39836;52.754;6.866;2023-05-18T11:12:12;15.30;65.90
53926;DHT22;39836;52.754;6.866;2023-05-18T11:14:47;15.20;65.70
53926;DHT22;39836;52.754;6.866;2023-05-18T11:17:15;15.40;66.30
53926;DHT22;39836;52.754;6.866;2023-05-18T11:22:51;15.50;66.20
53926;DHT22;39836;52.754;6.866;2023-05-18T11:27:50;15.60;66.00
53926;DHT22;39836;52.754;6.866;2023-05-18T11:33:08;15.90;66.70
53926;DHT22;39836;52.754;6.866;2023-05-18T11:44:15;16.20;65.30
53926;DHT22;39836;52.754;6.866;2023-05-18T11:47:02;16.20;65.10
53926;DHT22;39836;52.754;6.866;2023-05-18T11:49:36;16.40;65.80
53926;DHT22;39836;52.754;6.866;2023-05-18T11:52:07;16.70;66.00
53926;DHT22;39836;52.754;6.866;2023-05-18T11:54:59;16.90;66.40
53926;DHT22;39836;52.754;6.866;2023-05-18T11:57:37;17.00;66.00
53926;DHT22;39836;52.754;6.866;2023-05-18T12:00:06;17.10;66.40
53926;DHT22;39836;52.754;6.866;2023-05-18T12:02:33;17.20;65.90
53926;DHT22;39836;52.754;6.866;2023-05-18T12:05:00;17.00;65.50
53926;DHT22;39836;52.754;6.866;2023-05-18T12:07:28;17.10;65.60
53926;DHT22;39836;52.754;6.866;2023-05-18T12:09:58;17.10;65.50
53926;DHT22;39836;52.754;6.866;2023-05-18T12:12:26;17.20;65.60
53926;DHT22;39836;52.754;6.866;2023-05-18T12:14:57;17.20;65.80
53926;DHT22;39836;52.754;6.866;2023-05-18T12:22:45;17.60;65.60
53926;DHT22;39836;52.754;6.866;2023-05-18T12:25:11;17.60;65.50
53926;DHT22;39836;52.754;6.866;2023-05-18T12:27:41;17.60;65.60
53926;DHT22;39836;52.754;6.866;2023-05-18T12:30:18;17.50;65.60
53926;DHT22;39836;52.754;6.866;2023-05-18T12:32:53;17.60;65.80
53926;DHT22;39836;52.754;6.866;2023-05-18T12:35:27;17.90;66.00
53926;DHT22;39836;52.754;6.866;2023-05-18T12:37:54;18.00;65.40
53926;DHT22;39836;52.754;6.866;2023-05-18T12:40:21;18.10;65.20
53926;DHT22;39836;52.754;6.866;2023-05-18T12:42:54;18.30;65.20
53926;DHT22;39836;52.754;6.866;2023-05-18T12:45:23;18.40;65.60
53926;DHT22;39836;52.754;6.866;2023-05-18T12:47:50;18.30;65.50
53926;DHT22;39836;52.754;6.866;2023-05-18T12:50:23;18.30;65.30
53926;DHT22;39836;52.754;6.866;2023-05-18T12:52:51;18.60;65.10
53926;DHT22;39836;52.754;6.866;2023-05-18T12:55:17;18.80;65.00
53926;DHT22;39836;52.754;6.866;2023-05-18T13:00:24;19.00;64.70
53926;DHT22;39836;52.754;6.866;2023-05-18T13:02:50;19.10;64.60
53926;DHT22;39836;52.754;6.866;2023-05-18T13:05:22;19.10;65.00
53926;DHT22;39836;52.754;6.866;2023-05-18T13:07:48;19.40;65.20
53926;DHT22;39836;52.754;6.866;2023-05-18T13:10:17;19.40;64.90
53926;DHT22;39836;52.754;6.866;2023-05-18T13:12:46;19.60;64.70
53926;DHT22;39836;52.754;6.866;2023-05-18T13:15:17;19.70;64.40
53926;DHT22;39836;52.754;6.866;2023-05-18T13:17:57;19.80;64.10
53926;DHT22;39836;52.754;6.866;2023-05-18T13:20:41;19.90;64.10
53926;DHT22;39836;52.754;6.866;2023-05-18T13:23:13;19.90;64.20
53926;DHT22;39836;52.754;6.866;2023-05-18T13:25:40;19.90;64.20
53926;DHT22;39836;52.754;6.866;2023-05-18T13:28:06;20.00;64.00
53926;DHT22;39836;52.754;6.866;2023-05-18T13:30:35;20.10;64.20
53926;DHT22;39836;52.754;6.866;2023-05-18T13:33:01;20.10;64.40
53926;DHT22;39836;52.754;6.866;2023-05-18T13:35:27;20.20;64.20
53926;DHT22;39836;52.754;6.866;2023-05-18T13:37:53;20.30;64.20
53926;DHT22;39836;52.754;6.866;2023-05-18T13:40:19;20.60;63.80
53926;DHT22;39836;52.754;6.866;2023-05-18T13:42:46;20.60;63.70
53926;DHT22;39836;52.754;6.866;2023-05-18T13:45:13;20.50;63.50
53926;DHT22;39836;52.754;6.866;2023-05-18T13:47:39;20.70;63.70
53926;DHT22;39836;52.754;6.866;2023-05-18T13:50:06;20.90;63.70
53926;DHT22;39836;52.754;6.866;2023-05-18T13:52:33;21.00;63.70
53926;DHT22;39836;52.754;6.866;2023-05-18T13:54:58;21.00;63.30
53926;DHT22;39836;52.754;6.866;2023-05-18T13:57:24;21.00;63.20
53926;DHT22;39836;52.754;6.866;2023-05-18T13:59:51;21.00;63.30
53926;DHT22;39836;52.754;6.866;2023-05-18T14:02:18;20.80;63.20
53926;DHT22;39836;52.754;6.866;2023-05-18T14:04:43;20.80;63.00
53926;DHT22;39836;52.754;6.866;2023-05-18T14:07:09;20.60;63.20
53926;DHT22;39836;52.754;6.866;2023-05-18T14:09:35;20.40;63.10
53926;DHT22;39836;52.754;6.866;2023-05-18T14:12:01;20.60;63.10
53926;DHT22;39836;52.754;6.866;2023-05-18T14:14:29;20.60;63.10
53926;DHT22;39836;52.754;6.866;2023-05-18T14:16:55;20.70;62.70
53926;DHT22;39836;52.754;6.866;2023-05-18T14:19:21;20.80;62.70
53926;DHT22;39836;52.754;6.866;2023-05-18T14:21:46;21.00;62.80
53926;DHT22;39836;52.754;6.866;2023-05-18T14:24:12;21.30;62.60
53926;DHT22;39836;52.754;6.866;2023-05-18T14:26:40;21.50;62.70
53926;DHT22;39836;52.754;6.866;2023-05-18T14:29:05;21.90;62.80
53926;DHT22;39836;52.754;6.866;2023-05-18T14:31:31;22.10;62.60
53926;DHT22;39836;52.754;6.866;2023-05-18T14:33:57;22.30;62.80
53926;DHT22;39836;52.754;6.866;2023-05-18T14:36:23;22.40;62.80
53926;DHT22;39836;52.754;6.866;2023-05-18T14:38:49;22.50;62.50
53926;DHT22;39836;52.754;6.866;2023-05-18T14:41:15;22.50;62.20
53926;DHT22;39836;52.754;6.866;2023-05-18T14:43:41;22.50;62.30
53926;DHT22;39836;52.754;6.866;2023-05-18T14:46:06;22.70;62.30
53926;DHT22;39836;52.754;6.866;2023-05-18T14:48:32;22.90;62.30
53926;DHT22;39836;52.754;6.866;2023-05-18T14:50:58;23.20;62.40
53926;DHT22;39836;52.754;6.866;2023-05-18T14:53:23;23.60;62.10
53926;DHT22;39836;52.754;6.866;2023-05-18T14:55:49;23.80;61.70
53926;DHT22;39836;52.754;6.866;2023-05-18T14:58:15;23.60;61.80
53926;DHT22;39836;52.754;6.866;2023-05-18T15:00:41;23.80;61.80
53926;DHT22;39836;52.754;6.866;2023-05-18T15:03:07;23.80;61.90
53926;DHT22;39836;52.754;6.866;2023-05-18T15:05:33;24.20;61.80
53926;DHT22;39836;52.754;6.866;2023-05-18T15:07:59;24.20;61.70
53926;DHT22;39836;52.754;6.866;2023-05-18T15:10:25;24.10;61.40
53926;DHT22;39836;52.754;6.866;2023-05-18T15:12:50;24.10;61.50
53926;DHT22;39836;52.754;6.866;2023-05-18T15:15:16;24.10;61.50
53926;DHT22;39836;52.754;6.866;2023-05-18T15:17:42;24.30;61.30
53926;DHT22;39836;52.754;6.866;2023-05-18T15:20:09;24.20;61.10
53926;DHT22;39836;52.754;6.866;2023-05-18T15:22:35;24.40;61.20
53926;DHT22;39836;52.754;6.866;2023-05-18T15:25:03;24.40;61.30
53926;DHT22;39836;52.754;6.866;2023-05-18T15:27:31;24.60;61.30
53926;DHT22;39836;52.754;6.866;2023-05-18T15:29:57;24.20;61.20
53926;DHT22;39836;52.754;6.866;2023-05-18T15:32:23;24.30;61.30
53926;DHT22;39836;52.754;6.866;2023-05-18T15:34:48;23.90;61.10
53926;DHT22;39836;52.754;6.866;2023-05-18T15:37:15;23.00;61.10
53926;DHT22;39836;52.754;6.866;2023-05-18T15:39:41;22.30;61.00
53926;DHT22;39836;52.754;6.866;2023-05-18T15:42:07;21.70;61.00
53926;DHT22;39836;52.754;6.866;2023-05-18T15:44:33;21.10;60.90
53926;DHT22;39836;52.754;6.866;2023-05-18T15:46:59;20.80;60.90
53926;DHT22;39836;52.754;6.866;2023-05-18T15:49:26;20.40;60.90
53926;DHT22;39836;52.754;6.866;2023-05-18T15:51:51;20.10;60.90
53926;DHT22;39836;52.754;6.866;2023-05-18T15:54:17;19.90;61.20
53926;DHT22;39836;52.754;6.866;2023-05-18T15:56:43;19.60;61.10
53926;DHT22;39836;52.754;6.866;2023-05-18T15:59:09;19.50;61.10
53926;DHT22;39836;52.754;6.866;2023-05-18T16:01:35;19.20;61.10
53926;DHT22;39836;52.754;6.866;2023-05-18T16:04:00;19.10;61.20
53926;DHT22;39836;52.754;6.866;2023-05-18T16:06:27;19.00;61.00
53926;DHT22;39836;52.754;6.866;2023-05-18T16:08:53;18.90;61.10
53926;DHT22;39836;52.754;6.866;2023-05-18T16:11:20;18.80;61.10
53926;DHT22;39836;52.754;6.866;2023-05-18T16:13:46;18.60;61.00
53926;DHT22;39836;52.754;6.866;2023-05-18T16:16:15;18.50;61.10
53926;DHT22;39836;52.754;6.866;2023-05-18T16:18:41;18.40;61.20
53926;DHT22;39836;52.754;6.866;2023-05-18T16:21:07;18.30;61.40
53926;DHT22;39836;52.754;6.866;2023-05-18T16:23:33;18.20;61.20
53926;DHT22;39836;52.754;6.866;2023-05-18T16:25:59;18.20;61.20
53926;DHT22;39836;52.754;6.866;2023-05-18T16:28:30;18.10;61.30
53926;DHT22;39836;52.754;6.866;2023-05-18T16:30:55;18.10;61.30
53926;DHT22;39836;52.754;6.866;2023-05-18T16:33:21;18.00;61.20
53926;DHT22;39836;52.754;6.866;2023-05-18T16:35:46;17.90;61.50
53926;DHT22;39836;52.754;6.866;2023-05-18T16:38:12;18.00;61.80
53926;DHT22;39836;52.754;6.866;2023-05-18T16:40:38;18.10;61.60
53926;DHT22;39836;52.754;6.866;2023-05-18T16:43:04;18.00;61.50
53926;DHT22;39836;52.754;6.866;2023-05-18T16:45:30;18.00;61.50
53926;DHT22;39836;52.754;6.866;2023-05-18T16:47:56;17.80;61.40
53926;DHT22;39836;52.754;6.866;2023-05-18T16:50:22;17.70;61.40
53926;DHT22;39836;52.754;6.866;2023-05-18T16:52:48;17.70;61.50
53926;DHT22;39836;52.754;6.866;2023-05-18T16:55:14;17.60;61.60
53926;DHT22;39836;52.754;6.866;2023-05-18T21:46:08;10.80;73.90
53926;DHT22;39836;52.754;6.866;2023-05-18T21:48:51;10.80;73.60
53926;DHT22;39836;52.754;6.866;2023-05-18T21:52:01;10.70;73.70
53926;DHT22;39836;52.754;6.866;2023-05-18T21:54:49;10.70;73.80
53926;DHT22;39836;52.754;6.866;2023-05-18T21:57:16;10.60;74.00
53926;DHT22;39836;52.754;6.866;2023-05-18T21:59:48;10.60;74.00
53926;DHT22;39836;52.754;6.866;2023-05-18T22:02:14;10.50;74.30
53926;DHT22;39836;52.754;6.866;2023-05-18T22:04:40;10.50;74.50
53926;DHT22;39836;52.754;6.866;2023-05-18T22:07:05;10.50;74.40
53926;DHT22;39836;52.754;6.866;2023-05-18T22:09:31;10.50;74.70
53926;DHT22;39836;52.754;6.866;2023-05-18T22:11:57;10.30;74.80
53926;DHT22;39836;52.754;6.866;2023-05-18T22:14:23;10.50;75.10
53926;DHT22;39836;52.754;6.866;2023-05-18T22:16:48;10.30;75.10
53926;DHT22;39836;52.754;6.866;2023-05-18T22:19:14;10.30;75.10
53926;DHT22;39836;52.754;6.866;2023-05-18T22:21:40;10.30;75.10
53926;DHT22;39836;52.754;6.866;2023-05-18T22:24:06;10.20;75.20
53926;DHT22;39836;52.754;6.866;2023-05-18T22:26:31;10.20;75.30
53926;DHT22;39836;52.754;6.866;2023-05-18T22:28:57;10.10;75.40
53926;DHT22;39836;52.754;6.866;2023-05-18T22:31:23;10.10;75.50
53926;DHT22;39836;52.754;6.866;2023-05-18T22:33:49;10.10;75.50
53926;DHT22;39836;52.754;6.866;2023-05-18T22:36:18;10.10;75.50
53926;DHT22;39836;52.754;6.866;2023-05-18T22:38:46;10.10;76.10
53926;DHT22;39836;52.754;6.866;2023-05-18T22:41:13;10.00;75.60
53926;DHT22;39836;52.754;6.866;2023-05-18T22:43:40;10.00;75.60
53926;DHT22;39836;52.754;6.866;2023-05-18T22:46:06;9.90;76.00
53926;DHT22;39836;52.754;6.866;2023-05-18T22:48:32;9.90;75.80
53926;DHT22;39836;52.754;6.866;2023-05-18T22:50:59;9.90;76.00
53926;DHT22;39836;52.754;6.866;2023-05-18T22:53:25;9.90;75.80
53926;DHT22;39836;52.754;6.866;2023-05-18T22:55:51;9.80;76.20
53926;DHT22;39836;52.754;6.866;2023-05-18T22:58:17;9.80;76.00
53926;DHT22;39836;52.754;6.866;2023-05-18T23:00:42;9.80;76.70
53926;DHT22;39836;52.754;6.866;2023-05-18T23:03:08;9.70;76.30
53926;DHT22;39836;52.754;6.866;2023-05-18T23:05:34;9.70;76.10